createdAt,value
2023-05-06T00:02:40.454Z,2.00
2023-05-06T00:07:50.009Z,2.20
2023-05-06T00:12:59.815Z,2.40
2023-05-06T00:18:09.815Z,2.60
2023-05-06T00:23:19.325Z,1.30
2023-05-06T00:28:28.795Z,2.10
2023-05-06T00:33:38.645Z,1.40
2023-05-06T00:38:48.265Z,1.70
2023-05-06T00:43:57.712Z,1.60
2023-05-06T00:49:07.511Z,1.90
2023-05-06T00:54:17.799Z,1.70
2023-05-06T00:59:27.422Z,1.60
2023-05-06T01:04:37.841Z,1.70
2023-05-06T01:09:57.540Z,1.30
2023-05-06T01:15:16.773Z,1.50
2023-05-06T01:20:27.659Z,1.40
2023-05-06T01:25:37.273Z,1.50
2023-05-06T01:30:59.399Z,1.40
2023-05-06T01:36:21.627Z,1.40
2023-05-06T01:41:35.433Z,1.40
2023-05-06T01:46:46.875Z,1.20
2023-05-06T01:51:58.588Z,1.20
2023-05-06T01:57:08.105Z,1.20
2023-05-06T02:02:17.627Z,1.40
2023-05-06T02:07:27.126Z,1.00
2023-05-06T02:12:36.623Z,1.30
2023-05-06T02:17:46.561Z,1.20
2023-05-06T02:22:56.681Z,1.10
2023-05-06T02:28:06.325Z,1.70
2023-05-06T02:33:15.812Z,1.60
2023-05-06T02:38:27.176Z,1.20
2023-05-06T02:43:36.705Z,1.10
2023-05-06T02:48:46.660Z,1.40
2023-05-06T02:53:56.167Z,1.10
2023-05-06T02:59:05.653Z,1.10
2023-05-06T03:04:15.233Z,1.70
2023-05-06T03:09:24.854Z,0.90
2023-05-06T03:14:34.265Z,1.30
2023-05-06T03:19:44.565Z,1.60
2023-05-06T03:24:54.290Z,1.50
2023-05-06T03:30:03.801Z,1.20
2023-05-06T03:35:14.568Z,1.40
2023-05-06T03:40:24.255Z,1.20
2023-05-06T03:45:33.842Z,1.40
2023-05-06T03:50:43.706Z,1.40
2023-05-06T03:55:53.184Z,1.00
2023-05-06T04:01:03.076Z,1.50
2023-05-06T04:06:12.752Z,1.20
2023-05-06T04:11:22.242Z,1.60
2023-05-06T04:16:31.753Z,2.10
2023-05-06T04:21:41.257Z,1.20
2023-05-06T04:26:51.593Z,2.20
2023-05-06T04:32:01.178Z,1.90
2023-05-06T04:37:11.020Z,1.50
2023-05-06T04:42:20.685Z,1.10
2023-05-06T04:47:30.166Z,1.20
2023-05-06T04:52:39.791Z,1.10
2023-05-06T04:57:49.244Z,1.10
2023-05-06T05:02:58.934Z,1.10
2023-05-06T05:08:09.007Z,1.10
2023-05-06T05:13:18.609Z,1.10
2023-05-06T05:18:29.424Z,0.80
2023-05-06T05:23:38.966Z,1.00
2023-05-06T05:28:48.404Z,1.60
2023-05-06T05:33:58.031Z,1.10
2023-05-06T05:39:07.631Z,1.00
2023-05-06T05:44:17.335Z,0.90
2023-05-06T05:49:26.787Z,1.70
2023-05-06T05:54:37.567Z,1.60
2023-05-06T05:59:46.992Z,1.40
2023-05-06T06:04:57.058Z,1.30
2023-05-06T06:10:07.829Z,1.20
2023-05-06T06:15:18.157Z,3.80
2023-05-06T06:20:27.613Z,1.40
2023-05-06T06:25:37.108Z,1.00
2023-05-06T06:30:46.716Z,1.10
2023-05-06T06:35:56.356Z,1.20
2023-05-06T06:41:06.247Z,1.10
2023-05-06T06:46:15.963Z,1.60
2023-05-06T06:51:25.557Z,1.00
2023-05-06T06:56:35.055Z,1.50
2023-05-06T07:01:46.036Z,1.30
2023-05-06T07:06:55.596Z,1.20
2023-05-06T07:12:06.321Z,1.40
2023-05-06T07:17:16.110Z,2.10
2023-05-06T07:22:25.868Z,1.80
2023-05-06T07:27:35.548Z,1.50
2023-05-06T07:32:45.221Z,2.20
2023-05-06T07:37:54.792Z,1.80
2023-05-06T07:43:04.336Z,1.80
2023-05-06T07:48:14.325Z,1.40
2023-05-06T07:53:24.650Z,1.30
2023-05-06T07:58:34.517Z,1.80
2023-05-06T08:03:44.224Z,2.10
2023-05-06T08:08:53.956Z,1.90
2023-05-06T08:14:03.600Z,2.10
2023-05-06T08:19:13.073Z,2.30
2023-05-06T08:24:22.609Z,1.40
2023-05-06T08:29:32.124Z,1.60
2023-05-06T08:34:41.905Z,2.10
2023-05-06T08:39:51.413Z,1.70
2023-05-06T08:45:01.864Z,2.10
2023-05-06T08:50:13.808Z,1.90
2023-05-06T08:55:25.850Z,2.20
2023-05-06T09:00:37.011Z,1.20
2023-05-06T09:05:46.850Z,1.80
2023-05-06T09:10:56.378Z,2.30
2023-05-06T09:16:06.632Z,1.90
2023-05-06T09:21:16.260Z,2.10
2023-05-06T09:26:28.084Z,1.80
2023-05-06T09:31:44.255Z,1.80
2023-05-06T09:36:57.407Z,1.30
2023-05-06T09:42:07.155Z,1.70
2023-05-06T09:47:17.746Z,1.90
2023-05-06T09:52:27.858Z,1.90
2023-05-06T09:57:38.429Z,1.60
2023-05-06T10:02:49.269Z,2.00
2023-05-06T10:08:00.547Z,2.00
2023-05-06T10:13:10.184Z,1.70
2023-05-06T10:18:22.634Z,1.70
2023-05-06T10:23:41.290Z,1.80
2023-05-06T10:28:55.141Z,2.00
2023-05-06T10:34:09.321Z,1.90
2023-05-06T10:39:19.278Z,2.10
2023-05-06T10:44:59.193Z,1.40
2023-05-06T10:50:29.091Z,1.70
2023-05-06T10:55:40.385Z,2.00
2023-05-06T11:00:58.401Z,1.70
2023-05-06T11:06:09.009Z,2.20
2023-05-06T11:12:00.622Z,1.50
2023-05-06T11:17:30.212Z,1.40
2023-05-06T11:22:46.066Z,2.20
2023-05-06T11:27:57.449Z,2.30
2023-05-06T11:33:10.991Z,2.00
2023-05-06T11:38:20.716Z,2.00
2023-05-06T11:43:30.286Z,2.40
2023-05-06T11:48:39.842Z,1.90
2023-05-06T11:53:49.562Z,2.10
2023-05-06T11:58:59.967Z,2.10
2023-05-06T12:04:10.107Z,2.10
2023-05-06T12:09:22.571Z,2.50
2023-05-06T12:14:32.967Z,2.50
2023-05-06T12:19:43.492Z,1.80
2023-05-06T12:24:53.759Z,2.10
2023-05-06T12:30:04.998Z,1.60
2023-05-06T12:35:30.855Z,2.30
2023-05-06T12:40:41.416Z,1.80
2023-05-06T12:46:09.341Z,1.90
2023-05-06T12:51:27.143Z,2.10
2023-05-06T12:56:36.692Z,3.80
2023-05-06T13:01:46.229Z,2.60
2023-05-06T13:06:57.418Z,2.60
2023-05-06T13:12:07.857Z,2.50
2023-05-06T13:17:17.622Z,7.20
2023-05-06T13:22:27.399Z,5.40
2023-05-06T13:27:37.221Z,2.60
2023-05-06T13:32:47.082Z,3.10
2023-05-06T13:37:56.860Z,2.70
2023-05-06T13:43:06.404Z,2.60
2023-05-06T13:48:16.052Z,3.20
2023-05-06T13:53:25.638Z,2.40
2023-05-06T13:58:35.283Z,2.40
2023-05-06T14:03:44.977Z,2.20
2023-05-06T14:08:54.485Z,3.00
2023-05-06T14:14:04.171Z,2.20
2023-05-06T14:19:14.073Z,3.00
2023-05-06T14:24:23.670Z,3.20
2023-05-06T14:29:33.281Z,2.60
2023-05-06T14:34:42.837Z,2.40
2023-05-06T14:39:52.371Z,2.30
2023-05-06T14:45:01.869Z,2.50
2023-05-06T14:50:14.132Z,2.70
2023-05-06T14:55:23.846Z,2.60
2023-05-06T15:00:33.438Z,2.70
2023-05-06T15:05:42.993Z,2.50
2023-05-06T15:10:53.613Z,3.50
2023-05-06T15:16:03.130Z,3.30
2023-05-06T15:21:13.723Z,2.10
2023-05-06T15:26:23.859Z,2.70
2023-05-06T15:31:39.359Z,3.60
2023-05-06T15:36:53.771Z,2.80
2023-05-06T15:42:04.094Z,2.30
2023-05-06T15:47:13.792Z,2.90
2023-05-06T15:52:23.520Z,2.50
2023-05-06T15:57:35.705Z,1.50
2023-05-06T16:02:45.461Z,2.40
2023-05-06T16:07:56.189Z,9.20
2023-05-06T16:13:05.986Z,3.60
2023-05-06T16:18:15.783Z,2.50
2023-05-06T16:23:26.612Z,2.10
2023-05-06T16:28:37.381Z,3.60
2023-05-06T16:33:48.367Z,2.90
2023-05-06T16:38:57.895Z,2.40
2023-05-06T16:44:07.740Z,2.00
2023-05-06T16:49:17.209Z,2.10
2023-05-06T16:54:26.814Z,3.30
2023-05-06T16:59:36.419Z,3.20
2023-05-06T17:04:46.224Z,5.30
2023-05-06T17:09:55.826Z,4.10
2023-05-06T17:15:06.560Z,4.40
2023-05-06T17:20:17.306Z,10.10
2023-05-06T17:25:26.994Z,5.80
2023-05-06T17:30:36.729Z,3.60
2023-05-06T17:35:46.260Z,4.60
2023-05-06T17:40:55.743Z,3.70
2023-05-06T17:46:06.029Z,5.90
2023-05-06T17:51:16.043Z,8.40
2023-05-06T17:56:25.588Z,9.70
2023-05-06T18:01:35.142Z,6.10
2023-05-06T18:06:46.051Z,7.50
2023-05-06T18:11:55.674Z,6.90
2023-05-06T18:17:05.364Z,5.50
2023-05-06T18:22:14.959Z,7.80
2023-05-06T18:27:25.301Z,4.90
2023-05-06T18:32:35.307Z,3.70
2023-05-06T18:37:45.103Z,5.10
2023-05-06T18:42:56.871Z,4.50
2023-05-06T18:48:06.842Z,4.50
2023-05-06T18:53:16.990Z,4.80
2023-05-06T18:58:26.764Z,5.40
2023-05-06T19:03:37.807Z,3.70
2023-05-06T19:08:47.468Z,3.40
2023-05-06T19:13:57.054Z,3.40
2023-05-06T19:19:07.705Z,4.10
2023-05-06T19:24:17.385Z,4.80
2023-05-06T19:29:26.954Z,3.80
2023-05-06T19:34:36.945Z,3.20
2023-05-06T19:39:47.945Z,3.80
2023-05-06T19:44:57.740Z,3.60
2023-05-06T19:50:09.089Z,10.30
2023-05-06T19:55:19.229Z,21.00
2023-05-06T20:00:30.587Z,36.00
2023-05-06T20:05:40.132Z,12.90
2023-05-06T20:10:51.202Z,14.40
2023-05-06T20:16:02.224Z,5.60
2023-05-06T20:21:11.937Z,20.50
2023-05-06T20:26:23.903Z,12.40
2023-05-06T20:31:34.691Z,10.10
2023-05-06T20:36:46.186Z,7.90
2023-05-06T20:41:55.918Z,5.60
2023-05-06T20:47:10.797Z,5.70
2023-05-06T20:52:21.873Z,5.40
2023-05-06T20:57:31.365Z,4.60
2023-05-06T21:02:41.918Z,5.20
2023-05-06T21:07:52.118Z,4.90
2023-05-06T21:13:02.255Z,5.30
2023-05-06T21:18:11.903Z,5.10
2023-05-06T21:23:22.298Z,4.70
2023-05-06T21:28:31.837Z,6.90
2023-05-06T21:33:41.368Z,6.70
2023-05-06T21:39:03.886Z,6.10
2023-05-06T21:44:14.068Z,6.20
2023-05-06T21:49:23.595Z,3.80
2023-05-06T21:54:33.145Z,3.90
2023-05-06T21:59:42.785Z,3.80
2023-05-06T22:04:52.293Z,3.30
2023-05-06T22:10:01.845Z,3.40
2023-05-06T22:15:15.011Z,2.90
2023-05-06T22:20:25.108Z,3.40
2023-05-06T22:25:34.688Z,3.70
2023-05-06T22:30:44.161Z,3.20
2023-05-06T22:35:53.717Z,3.40
2023-05-06T22:41:03.207Z,3.40
2023-05-06T22:46:12.729Z,3.60
2023-05-06T22:51:22.531Z,2.50
2023-05-06T22:56:32.001Z,3.10
2023-05-06T23:01:41.514Z,2.90
2023-05-06T23:06:51.092Z,3.40
2023-05-06T23:12:01.826Z,3.20
2023-05-06T23:17:11.488Z,2.80
2023-05-06T23:22:21.186Z,2.80
2023-05-06T23:27:30.918Z,3.00
2023-05-06T23:32:41.494Z,3.70
2023-05-06T23:37:50.902Z,3.10
2023-05-06T23:43:00.590Z,2.80
2023-05-06T23:48:11.089Z,3.30
2023-05-06T23:53:20.730Z,3.80
2023-05-06T23:58:30.230Z,3.40
